sensor_id;sensor_type;location;lat;lon;timestamp;pressure;altitude;pressure_sealevel;temperature;humidity
4143;BME280;2085;51.052;6.958;2022-08-20T00:01:13;101139.91;;;22.10;57.29
4143;BME280;2085;51.052;6.958;2022-08-20T00:03:40;101139.06;;;22.09;57.01
4143;BME280;2085;51.052;6.958;2022-08-20T00:06:12;101140.16;;;22.07;57.22
4143;BME280;2085;51.052;6.958;2022-08-20T00:08:39;101135.81;;;22.06;56.98
4143;BME280;2085;51.052;6.958;2022-08-20T00:11:07;101140.31;;;22.05;57.29
4143;BME280;2085;51.052;6.958;2022-08-20T00:13:38;101131.44;;;22.05;57.30
4143;BME280;2085;51.052;6.958;2022-08-20T00:16:06;101128.03;;;22.03;57.54
4143;BME280;2085;51.052;6.958;2022-08-20T00:18:33;101128.03;;;22.03;57.44
4143;BME280;2085;51.052;6.958;2022-08-20T00:21:03;101131.84;;;22.00;57.44
4143;BME280;2085;51.052;6.958;2022-08-20T00:23:31;101130.44;;;21.96;57.25
4143;BME280;2085;51.052;6.958;2022-08-20T00:25:58;101134.63;;;21.89;57.44
4143;BME280;2085;51.052;6.958;2022-08-20T00:28:24;101145.31;;;21.79;57.46
4143;BME280;2085;51.052;6.958;2022-08-20T00:30:51;101135.44;;;21.70;57.39
4143;BME280;2085;51.052;6.958;2022-08-20T00:33:20;101135.44;;;21.61;57.45
4143;BME280;2085;51.052;6.958;2022-08-20T00:35:50;101131.75;;;21.52;57.55
4143;BME280;2085;51.052;6.958;2022-08-20T00:38:18;101129.72;;;21.45;57.65
4143;BME280;2085;51.052;6.958;2022-08-20T00:40:48;101131.97;;;21.40;57.95
4143;BME280;2085;51.052;6.958;2022-08-20T00:43:32;101133.38;;;21.34;58.14
4143;BME280;2085;51.052;6.958;2022-08-20T00:46:01;101133.75;;;21.20;58.51
4143;BME280;2085;51.052;6.958;2022-08-20T00:48:30;101141.13;;;21.07;58.50
4143;BME280;2085;51.052;6.958;2022-08-20T00:51:08;101144.59;;;20.98;58.90
4143;BME280;2085;51.052;6.958;2022-08-20T00:53:36;101141.59;;;20.91;59.12
4143;BME280;2085;51.052;6.958;2022-08-20T00:56:06;101136.50;;;20.88;59.35
4143;BME280;2085;51.052;6.958;2022-08-20T00:58:34;101142.94;;;20.85;59.25
4143;BME280;2085;51.052;6.958;2022-08-20T01:01:03;101138.84;;;20.81;59.32
4143;BME280;2085;51.052;6.958;2022-08-20T01:03:31;101131.78;;;20.80;59.44
4143;BME280;2085;51.052;6.958;2022-08-20T01:05:58;101139.25;;;20.77;59.58
4143;BME280;2085;51.052;6.958;2022-08-20T01:08:25;101137.53;;;20.76;59.49
4143;BME280;2085;51.052;6.958;2022-08-20T01:10:53;101137.16;;;20.80;59.46
4143;BME280;2085;51.052;6.958;2022-08-20T01:13:34;101136.44;;;20.78;59.26
4143;BME280;2085;51.052;6.958;2022-08-20T01:16:03;101140.50;;;20.73;59.49
4143;BME280;2085;51.052;6.958;2022-08-20T01:18:35;101129.47;;;20.66;59.54
4143;BME280;2085;51.052;6.958;2022-08-20T01:21:04;101125.09;;;20.65;59.63
4143;BME280;2085;51.052;6.958;2022-08-20T01:23:36;101121.00;;;20.61;59.89
4143;BME280;2085;51.052;6.958;2022-08-20T01:26:09;101123.34;;;20.55;59.99
4143;BME280;2085;51.052;6.958;2022-08-20T01:28:40;101121.91;;;20.51;59.77
4143;BME280;2085;51.052;6.958;2022-08-20T01:31:10;101116.66;;;20.49;59.85
4143;BME280;2085;51.052;6.958;2022-08-20T01:33:38;101124.47;;;20.52;59.82
4143;BME280;2085;51.052;6.958;2022-08-20T01:36:05;101125.75;;;20.58;59.52
4143;BME280;2085;51.052;6.958;2022-08-20T01:38:32;101132.53;;;20.62;59.75
4143;BME280;2085;51.052;6.958;2022-08-20T01:41:10;101129.72;;;20.63;59.61
4143;BME280;2085;51.052;6.958;2022-08-20T01:43:40;101128.75;;;20.64;59.14
4143;BME280;2085;51.052;6.958;2022-08-20T01:46:08;101130.44;;;20.65;59.43
4143;BME280;2085;51.052;6.958;2022-08-20T01:48:36;101132.16;;;20.66;59.53
4143;BME280;2085;51.052;6.958;2022-08-20T01:51:06;101136.66;;;20.66;59.42
4143;BME280;2085;51.052;6.958;2022-08-20T01:53:35;101142.84;;;20.66;59.41
4143;BME280;2085;51.052;6.958;2022-08-20T01:56:04;101148.06;;;20.68;59.63
4143;BME280;2085;51.052;6.958;2022-08-20T01:58:35;101148.91;;;20.68;59.44
4143;BME280;2085;51.052;6.958;2022-08-20T02:01:03;101148.66;;;20.71;59.77
4143;BME280;2085;51.052;6.958;2022-08-20T02:03:30;101152.16;;;20.72;59.64
4143;BME280;2085;51.052;6.958;2022-08-20T02:05:58;101154.72;;;20.73;59.59
4143;BME280;2085;51.052;6.958;2022-08-20T02:08:25;101157.41;;;20.73;59.36
4143;BME280;2085;51.052;6.958;2022-08-20T02:10:52;101158.38;;;20.72;59.80
4143;BME280;2085;51.052;6.958;2022-08-20T02:13:20;101165.69;;;20.70;59.75
4143;BME280;2085;51.052;6.958;2022-08-20T02:15:48;101155.22;;;20.67;59.57
4143;BME280;2085;51.052;6.958;2022-08-20T02:18:15;101156.34;;;20.65;59.68
4143;BME280;2085;51.052;6.958;2022-08-20T02:20:42;101154.66;;;20.64;59.80
4143;BME280;2085;51.052;6.958;2022-08-20T02:23:11;101146.78;;;20.62;59.82
4143;BME280;2085;51.052;6.958;2022-08-20T02:25:41;101142.50;;;20.60;60.05
4143;BME280;2085;51.052;6.958;2022-08-20T02:28:12;101140.81;;;20.59;60.14
4143;BME280;2085;51.052;6.958;2022-08-20T02:30:42;101144.59;;;20.56;59.99
4143;BME280;2085;51.052;6.958;2022-08-20T02:33:14;101147.56;;;20.53;60.16
4143;BME280;2085;51.052;6.958;2022-08-20T02:35:44;101146.81;;;20.51;60.00
4143;BME280;2085;51.052;6.958;2022-08-20T02:38:11;101147.09;;;20.48;60.06
4143;BME280;2085;51.052;6.958;2022-08-20T02:40:38;101141.00;;;20.46;60.15
4143;BME280;2085;51.052;6.958;2022-08-20T02:43:05;101146.47;;;20.44;60.24
4143;BME280;2085;51.052;6.958;2022-08-20T02:45:33;101138.44;;;20.44;60.36
4143;BME280;2085;51.052;6.958;2022-08-20T02:48:02;101143.69;;;20.46;60.28
4143;BME280;2085;51.052;6.958;2022-08-20T02:50:30;101150.47;;;20.50;60.53
4143;BME280;2085;51.052;6.958;2022-08-20T02:52:57;101153.72;;;20.54;60.36
4143;BME280;2085;51.052;6.958;2022-08-20T02:55:23;101153.50;;;20.57;60.21
4143;BME280;2085;51.052;6.958;2022-08-20T02:57:53;101152.38;;;20.59;60.29
4143;BME280;2085;51.052;6.958;2022-08-20T03:00:20;101152.25;;;20.61;60.16
4143;BME280;2085;51.052;6.958;2022-08-20T03:02:47;101150.41;;;20.61;60.45
4143;BME280;2085;51.052;6.958;2022-08-20T03:05:14;101146.03;;;20.60;60.34
4143;BME280;2085;51.052;6.958;2022-08-20T03:07:43;101145.31;;;20.58;60.49
4143;BME280;2085;51.052;6.958;2022-08-20T03:10:10;101141.94;;;20.56;60.17
4143;BME280;2085;51.052;6.958;2022-08-20T03:12:39;101143.88;;;20.54;60.46
4143;BME280;2085;51.052;6.958;2022-08-20T03:15:08;101143.28;;;20.51;60.26
4143;BME280;2085;51.052;6.958;2022-08-20T03:17:36;101147.94;;;20.48;60.39
4143;BME280;2085;51.052;6.958;2022-08-20T03:20:04;101141.75;;;20.48;60.42
4143;BME280;2085;51.052;6.958;2022-08-20T03:22:32;101131.16;;;20.46;60.85
4143;BME280;2085;51.052;6.958;2022-08-20T03:25:00;101142.72;;;20.47;60.80
4143;BME280;2085;51.052;6.958;2022-08-20T03:27:27;101141.97;;;20.45;60.66
4143;BME280;2085;51.052;6.958;2022-08-20T03:29:53;101138.22;;;20.47;60.88
4143;BME280;2085;51.052;6.958;2022-08-20T03:32:20;101136.41;;;20.48;60.59
4143;BME280;2085;51.052;6.958;2022-08-20T03:34:47;101137.38;;;20.47;60.87
4143;BME280;2085;51.052;6.958;2022-08-20T03:37:13;101134.69;;;20.47;60.90
4143;BME280;2085;51.052;6.958;2022-08-20T03:39:40;101128.38;;;20.48;60.85
4143;BME280;2085;51.052;6.958;2022-08-20T03:42:08;101127.53;;;20.47;60.82
4143;BME280;2085;51.052;6.958;2022-08-20T03:44:34;101127.75;;;20.44;60.99
4143;BME280;2085;51.052;6.958;2022-08-20T03:47:02;101127.19;;;20.41;60.77
4143;BME280;2085;51.052;6.958;2022-08-20T03:49:32;101126.59;;;20.37;60.79
4143;BME280;2085;51.052;6.958;2022-08-20T03:51:58;101131.34;;;20.34;61.02
4143;BME280;2085;51.052;6.958;2022-08-20T03:54:25;101122.84;;;20.29;61.28
4143;BME280;2085;51.052;6.958;2022-08-20T03:56:52;101120.28;;;20.27;61.22
4143;BME280;2085;51.052;6.958;2022-08-20T03:59:20;101118.72;;;20.25;61.39
4143;BME280;2085;51.052;6.958;2022-08-20T04:01:46;101117.16;;;20.22;61.13
4143;BME280;2085;51.052;6.958;2022-08-20T04:04:13;101115.31;;;20.23;61.48
4143;BME280;2085;51.052;6.958;2022-08-20T04:06:41;101127.00;;;20.22;61.23
4143;BME280;2085;51.052;6.958;2022-08-20T04:09:08;101131.50;;;20.21;61.35
4143;BME280;2085;51.052;6.958;2022-08-20T04:11:34;101136.00;;;20.21;61.22
4143;BME280;2085;51.052;6.958;2022-08-20T04:14:01;101137.72;;;20.22;61.72
4143;BME280;2085;51.052;6.958;2022-08-20T04:16:29;101140.22;;;20.23;61.46
4143;BME280;2085;51.052;6.958;2022-08-20T04:18:57;101145.31;;;20.26;61.42
4143;BME280;2085;51.052;6.958;2022-08-20T04:21:24;101145.97;;;20.30;61.52
4143;BME280;2085;51.052;6.958;2022-08-20T04:23:50;101151.91;;;20.33;61.72
4143;BME280;2085;51.052;6.958;2022-08-20T04:26:17;101151.50;;;20.38;61.55
4143;BME280;2085;51.052;6.958;2022-08-20T04:28:45;101151.13;;;20.42;61.51
4143;BME280;2085;51.052;6.958;2022-08-20T04:31:12;101153.53;;;20.45;61.32
4143;BME280;2085;51.052;6.958;2022-08-20T04:33:40;101161.16;;;20.50;61.20
4143;BME280;2085;51.052;6.958;2022-08-20T04:36:08;101165.53;;;20.51;61.34
4143;BME280;2085;51.052;6.958;2022-08-20T04:38:35;101170.63;;;20.54;61.33
4143;BME280;2085;51.052;6.958;2022-08-20T04:41:01;101161.63;;;20.55;61.11
4143;BME280;2085;51.052;6.958;2022-08-20T04:43:30;101170.63;;;20.54;61.33
4143;BME280;2085;51.052;6.958;2022-08-20T04:46:00;101179.66;;;20.53;61.29
4143;BME280;2085;51.052;6.958;2022-08-20T04:48:28;101183.28;;;20.52;61.65
4143;BME280;2085;51.052;6.958;2022-08-20T04:50:57;101189.50;;;20.53;61.39
4143;BME280;2085;51.052;6.958;2022-08-20T04:53:26;101184.25;;;20.51;61.41
4143;BME280;2085;51.052;6.958;2022-08-20T04:55:55;101182.81;;;20.47;61.21
4143;BME280;2085;51.052;6.958;2022-08-20T04:58:24;101185.03;;;20.42;61.15
4143;BME280;2085;51.052;6.958;2022-08-20T05:00:54;101186.78;;;20.32;61.61
4143;BME280;2085;51.052;6.958;2022-08-20T05:03:22;101184.34;;;20.18;61.81
4143;BME280;2085;51.052;6.958;2022-08-20T05:05:49;101187.03;;;20.18;61.92
4143;BME280;2085;51.052;6.958;2022-08-20T05:08:19;101188.03;;;20.17;61.82
4143;BME280;2085;51.052;6.958;2022-08-20T05:10:48;101189.69;;;20.18;61.83
4143;BME280;2085;51.052;6.958;2022-08-20T05:13:15;101189.50;;;20.10;62.03
4143;BME280;2085;51.052;6.958;2022-08-20T05:15:42;101198.03;;;20.03;62.07
4143;BME280;2085;51.052;6.958;2022-08-20T05:18:10;101192.06;;;20.00;62.38
4143;BME280;2085;51.052;6.958;2022-08-20T05:20:39;101194.03;;;19.98;62.08
4143;BME280;2085;51.052;6.958;2022-08-20T05:23:08;101195.59;;;20.00;62.33
4143;BME280;2085;51.052;6.958;2022-08-20T05:25:37;101194.72;;;20.00;62.20
4143;BME280;2085;51.052;6.958;2022-08-20T05:28:07;101190.97;;;20.02;62.36
4143;BME280;2085;51.052;6.958;2022-08-20T05:30:38;101190.00;;;20.03;62.13
4143;BME280;2085;51.052;6.958;2022-08-20T05:33:06;101195.22;;;20.05;62.33
4143;BME280;2085;51.052;6.958;2022-08-20T05:35:35;101193.66;;;20.02;62.33
4143;BME280;2085;51.052;6.958;2022-08-20T05:38:03;101194.88;;;19.98;62.62
4143;BME280;2085;51.052;6.958;2022-08-20T05:40:30;101190.75;;;19.94;62.73
4143;BME280;2085;51.052;6.958;2022-08-20T05:42:58;101190.03;;;19.92;62.64
4143;BME280;2085;51.052;6.958;2022-08-20T05:45:25;101185.53;;;19.93;62.60
4143;BME280;2085;51.052;6.958;2022-08-20T05:47:51;101197.31;;;19.90;62.90
4143;BME280;2085;51.052;6.958;2022-08-20T05:50:19;101200.13;;;19.89;63.26
4143;BME280;2085;51.052;6.958;2022-08-20T05:52:46;101192.97;;;19.89;62.94
4143;BME280;2085;51.052;6.958;2022-08-20T05:55:12;101193.66;;;19.91;63.05
4143;BME280;2085;51.052;6.958;2022-08-20T05:57:40;101204.94;;;19.95;63.10
4143;BME280;2085;51.052;6.958;2022-08-20T06:00:11;101203.88;;;19.97;62.95
4143;BME280;2085;51.052;6.958;2022-08-20T06:02:39;101204.56;;;19.99;63.28
4143;BME280;2085;51.052;6.958;2022-08-20T06:05:23;101204.47;;;20.01;63.33
4143;BME280;2085;51.052;6.958;2022-08-20T06:07:51;101205.06;;;20.04;63.06
4143;BME280;2085;51.052;6.958;2022-08-20T06:10:18;101214.78;;;20.05;63.33
4143;BME280;2085;51.052;6.958;2022-08-20T06:12:45;101213.53;;;20.10;63.05
4143;BME280;2085;51.052;6.958;2022-08-20T06:15:13;101222.31;;;20.12;63.19
4143;BME280;2085;51.052;6.958;2022-08-20T06:17:39;101214.13;;;20.13;63.28
4143;BME280;2085;51.052;6.958;2022-08-20T06:20:07;101219.47;;;20.13;63.13
4143;BME280;2085;51.052;6.958;2022-08-20T06:22:34;101213.31;;;20.13;63.15
4143;BME280;2085;51.052;6.958;2022-08-20T06:25:02;101216.09;;;20.11;63.28
4143;BME280;2085;51.052;6.958;2022-08-20T06:27:29;101219.75;;;20.10;63.09
4143;BME280;2085;51.052;6.958;2022-08-20T06:29:56;101222.53;;;20.09;62.96
4143;BME280;2085;51.052;6.958;2022-08-20T06:32:24;101224.50;;;20.07;63.14
4143;BME280;2085;51.052;6.958;2022-08-20T06:34:52;101221.22;;;20.03;63.30
4143;BME280;2085;51.052;6.958;2022-08-20T06:37:21;101228.41;;;20.02;63.15
4143;BME280;2085;51.052;6.958;2022-08-20T06:39:49;101228.41;;;20.02;63.40
4143;BME280;2085;51.052;6.958;2022-08-20T06:42:16;101230.69;;;20.07;63.35
4143;BME280;2085;51.052;6.958;2022-08-20T06:44:43;101237.59;;;20.10;63.61
4143;BME280;2085;51.052;6.958;2022-08-20T06:47:14;101231.88;;;20.14;63.51
4143;BME280;2085;51.052;6.958;2022-08-20T06:49:43;101239.53;;;20.19;63.39
4143;BME280;2085;51.052;6.958;2022-08-20T06:52:09;101239.28;;;20.22;63.10
4143;BME280;2085;51.052;6.958;2022-08-20T06:54:36;101232.94;;;20.23;63.32
4143;BME280;2085;51.052;6.958;2022-08-20T06:57:03;101241.81;;;20.23;63.57
4143;BME280;2085;51.052;6.958;2022-08-20T06:59:30;101239.88;;;20.25;63.38
4143;BME280;2085;51.052;6.958;2022-08-20T07:01:57;101251.16;;;20.29;63.54
4143;BME280;2085;51.052;6.958;2022-08-20T07:04:25;101252.03;;;20.29;63.42
4143;BME280;2085;51.052;6.958;2022-08-20T07:06:54;101251.78;;;20.32;63.67
4143;BME280;2085;51.052;6.958;2022-08-20T07:09:23;101257.03;;;20.34;63.57
4143;BME280;2085;51.052;6.958;2022-08-20T07:11:50;101256.19;;;20.33;63.42
4143;BME280;2085;51.052;6.958;2022-08-20T07:14:17;101254.34;;;20.34;63.60
4143;BME280;2085;51.052;6.958;2022-08-20T07:16:44;101251.53;;;20.35;63.40
4143;BME280;2085;51.052;6.958;2022-08-20T07:19:11;101259.19;;;20.40;63.65
4143;BME280;2085;51.052;6.958;2022-08-20T07:21:38;101261.63;;;20.43;63.76
4143;BME280;2085;51.052;6.958;2022-08-20T07:24:06;101266.00;;;20.44;63.43
4143;BME280;2085;51.052;6.958;2022-08-20T07:26:33;101265.53;;;20.39;63.40
4143;BME280;2085;51.052;6.958;2022-08-20T07:29:00;101264.19;;;20.33;63.55
4143;BME280;2085;51.052;6.958;2022-08-20T07:31:27;101274.16;;;20.31;63.49
4143;BME280;2085;51.052;6.958;2022-08-20T07:34:10;101268.94;;;20.30;63.94
4143;BME280;2085;51.052;6.958;2022-08-20T07:36:38;101266.97;;;20.32;64.01
4143;BME280;2085;51.052;6.958;2022-08-20T07:39:05;101263.09;;;20.36;63.86
4143;BME280;2085;51.052;6.958;2022-08-20T07:41:32;101273.41;;;20.40;63.90
4143;BME280;2085;51.052;6.958;2022-08-20T07:43:59;101274.59;;;20.47;63.85
4143;BME280;2085;51.052;6.958;2022-08-20T07:46:25;101269.59;;;20.54;63.81
4143;BME280;2085;51.052;6.958;2022-08-20T07:48:55;101278.81;;;20.61;63.82
4143;BME280;2085;51.052;6.958;2022-08-20T07:51:22;101280.00;;;20.68;63.71
4143;BME280;2085;51.052;6.958;2022-08-20T07:53:50;101284.97;;;20.73;63.72
4143;BME280;2085;51.052;6.958;2022-08-20T07:56:20;101282.03;;;20.76;63.72
4143;BME280;2085;51.052;6.958;2022-08-20T07:58:49;101282.75;;;20.78;63.50
4143;BME280;2085;51.052;6.958;2022-08-20T08:01:16;101285.31;;;20.79;63.55
4143;BME280;2085;51.052;6.958;2022-08-20T08:03:44;101286.88;;;20.82;63.92
4143;BME280;2085;51.052;6.958;2022-08-20T08:06:11;101292.81;;;20.85;63.81
4143;BME280;2085;51.052;6.958;2022-08-20T08:08:39;101291.72;;;20.88;63.61
4143;BME280;2085;51.052;6.958;2022-08-20T08:11:06;101286.22;;;20.89;63.70
4143;BME280;2085;51.052;6.958;2022-08-20T08:13:37;101286.94;;;20.91;63.63
4143;BME280;2085;51.052;6.958;2022-08-20T08:16:06;101298.78;;;20.89;63.40
4143;BME280;2085;51.052;6.958;2022-08-20T08:18:36;101292.19;;;20.93;63.86
4143;BME280;2085;51.052;6.958;2022-08-20T08:21:05;101296.88;;;21.01;63.99
4143;BME280;2085;51.052;6.958;2022-08-20T08:23:32;101291.59;;;21.10;63.80
4143;BME280;2085;51.052;6.958;2022-08-20T08:26:00;101302.19;;;21.12;63.53
4143;BME280;2085;51.052;6.958;2022-08-20T08:28:26;101304.88;;;21.12;63.81
4143;BME280;2085;51.052;6.958;2022-08-20T08:30:55;101306.19;;;21.17;63.71
4143;BME280;2085;51.052;6.958;2022-08-20T08:33:23;101311.53;;;21.17;63.72
4143;BME280;2085;51.052;6.958;2022-08-20T08:35:54;101308.88;;;21.17;63.62
4143;BME280;2085;51.052;6.958;2022-08-20T08:38:22;101311.94;;;21.13;63.56
4143;BME280;2085;51.052;6.958;2022-08-20T08:40:50;101306.81;;;21.10;63.58
4143;BME280;2085;51.052;6.958;2022-08-20T08:43:19;101314.38;;;21.05;63.50
4143;BME280;2085;51.052;6.958;2022-08-20T08:45:57;101325.34;;;21.02;63.67
4143;BME280;2085;51.052;6.958;2022-08-20T08:48:33;101331.34;;;20.94;63.47
4143;BME280;2085;51.052;6.958;2022-08-20T08:51:01;101327.84;;;20.93;63.54
4143;BME280;2085;51.052;6.958;2022-08-20T08:53:33;101329.03;;;20.89;63.57
4143;BME280;2085;51.052;6.958;2022-08-20T08:56:02;101338.06;;;20.88;63.60
4143;BME280;2085;51.052;6.958;2022-08-20T08:58:28;101341.84;;;20.86;63.69
4143;BME280;2085;51.052;6.958;2022-08-20T09:01:01;101335.63;;;20.85;63.81
4143;BME280;2085;51.052;6.958;2022-08-20T09:03:30;101338.31;;;20.85;63.73
4143;BME280;2085;51.052;6.958;2022-08-20T09:05:59;101350.00;;;20.84;63.55
4143;BME280;2085;51.052;6.958;2022-08-20T09:08:29;101351.09;;;20.82;63.44
4143;BME280;2085;51.052;6.958;2022-08-20T09:11:01;101360.47;;;20.76;63.87
4143;BME280;2085;51.052;6.958;2022-08-20T09:13:28;101358.66;;;20.77;63.86
4143;BME280;2085;51.052;6.958;2022-08-20T09:15:55;101364.59;;;20.80;63.59
4143;BME280;2085;51.052;6.958;2022-08-20T09:18:23;101364.34;;;20.83;63.94
4143;BME280;2085;51.052;6.958;2022-08-20T09:20:50;101364.34;;;20.83;63.27
4143;BME280;2085;51.052;6.958;2022-08-20T09:23:16;101366.44;;;20.80;63.44
4143;BME280;2085;51.052;6.958;2022-08-20T09:25:43;101369.22;;;20.78;63.66
4143;BME280;2085;51.052;6.958;2022-08-20T09:28:10;101372.41;;;20.72;63.51
4143;BME280;2085;51.052;6.958;2022-08-20T09:30:36;101374.75;;;20.66;63.41
4143;BME280;2085;51.052;6.958;2022-08-20T09:33:03;101370.63;;;20.62;63.59
4143;BME280;2085;51.052;6.958;2022-08-20T09:35:31;101373.16;;;20.63;63.86
4143;BME280;2085;51.052;6.958;2022-08-20T09:37:58;101372.06;;;20.66;63.84
4143;BME280;2085;51.052;6.958;2022-08-20T09:40:25;101367.56;;;20.66;63.35
4143;BME280;2085;51.052;6.958;2022-08-20T09:42:51;101367.56;;;20.66;63.38
4143;BME280;2085;51.052;6.958;2022-08-20T09:45:18;101363.91;;;20.67;63.82
4143;BME280;2085;51.052;6.958;2022-08-20T09:47:45;101356.13;;;20.75;63.96
4143;BME280;2085;51.052;6.958;2022-08-20T09:50:12;101367.50;;;20.88;63.61
4143;BME280;2085;51.052;6.958;2022-08-20T09:52:41;101365.91;;;20.97;63.66
4143;BME280;2085;51.052;6.958;2022-08-20T09:55:17;101364.28;;;21.06;63.56
4143;BME280;2085;51.052;6.958;2022-08-20T09:57:45;101358.88;;;21.17;63.45
4143;BME280;2085;51.052;6.958;2022-08-20T10:00:13;101352.91;;;21.24;63.56
4143;BME280;2085;51.052;6.958;2022-08-20T10:02:40;101356.75;;;21.31;63.16
4143;BME280;2085;51.052;6.958;2022-08-20T10:05:08;101360.47;;;21.40;63.48
4143;BME280;2085;51.052;6.958;2022-08-20T10:07:37;101353.09;;;21.53;62.95
4143;BME280;2085;51.052;6.958;2022-08-20T10:10:07;101361.06;;;21.64;63.00
4143;BME280;2085;51.052;6.958;2022-08-20T10:12:34;101359.03;;;21.77;63.14
4143;BME280;2085;51.052;6.958;2022-08-20T10:15:01;101361.75;;;21.87;62.90
4143;BME280;2085;51.052;6.958;2022-08-20T10:17:27;101358.31;;;21.96;63.10
4143;BME280;2085;51.052;6.958;2022-08-20T10:19:54;101365.84;;;22.12;62.96
4143;BME280;2085;51.052;6.958;2022-08-20T10:22:21;101359.97;;;22.28;63.05
4143;BME280;2085;51.052;6.958;2022-08-20T10:24:47;101357.63;;;22.44;62.49
4143;BME280;2085;51.052;6.958;2022-08-20T10:27:15;101365.16;;;22.59;62.29
4143;BME280;2085;51.052;6.958;2022-08-20T10:29:42;101365.84;;;22.61;62.42
4143;BME280;2085;51.052;6.958;2022-08-20T10:32:10;101373.19;;;22.59;62.65
4143;BME280;2085;51.052;6.958;2022-08-20T10:34:37;101374.06;;;22.60;62.14
4143;BME280;2085;51.052;6.958;2022-08-20T10:37:04;101374.88;;;22.60;62.38
4143;BME280;2085;51.052;6.958;2022-08-20T10:39:31;101378.69;;;22.58;62.52
4143;BME280;2085;51.052;6.958;2022-08-20T10:41:57;101372.31;;;22.49;62.65
4143;BME280;2085;51.052;6.958;2022-08-20T10:44:25;101371.88;;;22.44;62.72
4143;BME280;2085;51.052;6.958;2022-08-20T10:46:52;101377.38;;;22.43;62.48
4143;BME280;2085;51.052;6.958;2022-08-20T10:49:18;101366.22;;;22.47;62.47
4143;BME280;2085;51.052;6.958;2022-08-20T10:51:45;101374.47;;;22.55;62.71
4143;BME280;2085;51.052;6.958;2022-08-20T10:54:12;101379.03;;;22.74;62.61
4143;BME280;2085;51.052;6.958;2022-08-20T10:56:39;101369.19;;;22.94;62.64
4143;BME280;2085;51.052;6.958;2022-08-20T10:59:06;101370.59;;;23.17;62.18
4143;BME280;2085;51.052;6.958;2022-08-20T11:01:34;101364.94;;;23.49;62.35
4143;BME280;2085;51.052;6.958;2022-08-20T11:04:01;101361.59;;;23.84;62.12
4143;BME280;2085;51.052;6.958;2022-08-20T11:06:27;101366.47;;;24.08;61.53
4143;BME280;2085;51.052;6.958;2022-08-20T11:08:54;101365.31;;;24.10;61.08
4143;BME280;2085;51.052;6.958;2022-08-20T11:11:21;101366.19;;;24.01;61.43
4143;BME280;2085;51.052;6.958;2022-08-20T11:13:47;101362.75;;;23.81;61.07
4143;BME280;2085;51.052;6.958;2022-08-20T11:16:14;101368.47;;;23.59;61.22
4143;BME280;2085;51.052;6.958;2022-08-20T11:18:42;101376.00;;;23.46;61.61
4143;BME280;2085;51.052;6.958;2022-08-20T11:21:08;101368.75;;;23.37;61.38
4143;BME280;2085;51.052;6.958;2022-08-20T11:23:35;101363.81;;;23.32;61.39
4143;BME280;2085;51.052;6.958;2022-08-20T11:26:01;101367.19;;;23.25;61.38
4143;BME280;2085;51.052;6.958;2022-08-20T11:28:28;101372.84;;;23.22;61.69
4143;BME280;2085;51.052;6.958;2022-08-20T11:30:58;101368.47;;;23.30;61.49
4143;BME280;2085;51.052;6.958;2022-08-20T11:33:24;101370.31;;;23.39;61.82
4143;BME280;2085;51.052;6.958;2022-08-20T11:35:52;101376.38;;;23.51;61.58
4143;BME280;2085;51.052;6.958;2022-08-20T11:38:19;101366.06;;;23.46;61.34
4143;BME280;2085;51.052;6.958;2022-08-20T11:40:46;101374.69;;;23.40;61.45
4143;BME280;2085;51.052;6.958;2022-08-20T11:43:12;101369.56;;;23.37;61.02
4143;BME280;2085;51.052;6.958;2022-08-20T11:45:39;101369.19;;;23.32;61.28
4143;BME280;2085;51.052;6.958;2022-08-20T11:48:06;101371.16;;;23.30;60.96
4143;BME280;2085;51.052;6.958;2022-08-20T11:50:32;101384.59;;;23.30;61.15
4143;BME280;2085;51.052;6.958;2022-08-20T11:53:00;101375.41;;;23.23;61.16
4143;BME280;2085;51.052;6.958;2022-08-20T11:55:28;101372.31;;;23.18;61.44
4143;BME280;2085;51.052;6.958;2022-08-20T11:57:55;101381.03;;;23.20;61.19
4143;BME280;2085;51.052;6.958;2022-08-20T12:00:22;101374.41;;;23.34;61.35
4143;BME280;2085;51.052;6.958;2022-08-20T12:02:49;101381.63;;;23.52;60.96
4143;BME280;2085;51.052;6.958;2022-08-20T12:05:17;101374.97;;;23.56;60.74
4143;BME280;2085;51.052;6.958;2022-08-20T12:07:43;101369.59;;;23.56;60.45
4143;BME280;2085;51.052;6.958;2022-08-20T12:10:12;101369.13;;;23.71;60.38
4143;BME280;2085;51.052;6.958;2022-08-20T12:12:39;101360.03;;;23.91;60.73
4143;BME280;2085;51.052;6.958;2022-08-20T12:15:07;101360.38;;;24.06;60.04
4143;BME280;2085;51.052;6.958;2022-08-20T12:17:35;101357.66;;;24.15;60.28
4143;BME280;2085;51.052;6.958;2022-08-20T12:20:06;101346.03;;;24.24;60.07
4143;BME280;2085;51.052;6.958;2022-08-20T12:22:33;101361.28;;;24.33;59.42
4143;BME280;2085;51.052;6.958;2022-08-20T12:24:59;101358.69;;;24.41;59.55
4143;BME280;2085;51.052;6.958;2022-08-20T12:27:30;101356.34;;;24.56;59.81
4143;BME280;2085;51.052;6.958;2022-08-20T12:29:59;101352.38;;;24.51;59.21
4143;BME280;2085;51.052;6.958;2022-08-20T12:32:28;101359.06;;;24.47;59.67
4143;BME280;2085;51.052;6.958;2022-08-20T12:34:56;101354.84;;;24.44;59.19
4143;BME280;2085;51.052;6.958;2022-08-20T12:37:25;101351.75;;;24.39;59.85
4143;BME280;2085;51.052;6.958;2022-08-20T12:39:54;101356.91;;;24.50;59.31
4143;BME280;2085;51.052;6.958;2022-08-20T12:42:22;101358.25;;;24.64;59.69
4143;BME280;2085;51.052;6.958;2022-08-20T12:44:50;101352.97;;;24.72;59.44
4143;BME280;2085;51.052;6.958;2022-08-20T12:47:19;101352.59;;;24.67;59.13
4143;BME280;2085;51.052;6.958;2022-08-20T12:49:49;101352.38;;;24.51;59.38
4143;BME280;2085;51.052;6.958;2022-08-20T12:52:17;101340.69;;;24.42;59.52
4143;BME280;2085;51.052;6.958;2022-08-20T12:54:44;101349.56;;;24.52;59.24
4143;BME280;2085;51.052;6.958;2022-08-20T12:57:13;101343.81;;;24.65;59.11
4143;BME280;2085;51.052;6.958;2022-08-20T12:59:40;101346.97;;;24.78;59.21
4143;BME280;2085;51.052;6.958;2022-08-20T13:02:08;101344.66;;;24.83;58.91
4143;BME280;2085;51.052;6.958;2022-08-20T13:04:35;101342.13;;;24.81;58.82
4143;BME280;2085;51.052;6.958;2022-08-20T13:07:02;101335.28;;;24.69;58.80
4143;BME280;2085;51.052;6.958;2022-08-20T13:09:29;101343.13;;;24.63;58.66
4143;BME280;2085;51.052;6.958;2022-08-20T13:11:56;101349.25;;;24.73;58.76
4143;BME280;2085;51.052;6.958;2022-08-20T13:14:23;101336.16;;;24.87;58.39